createdAt,value
2018-05-02T00:01:13.020Z,7.60
2018-05-02T00:03:42.626Z,7.60
2018-05-02T00:06:11.526Z,7.60
2018-05-02T00:08:40.668Z,7.60
2018-05-02T00:11:09.570Z,7.60
2018-05-02T00:13:39.503Z,7.70
2018-05-02T00:16:08.292Z,7.70
2018-05-02T00:18:37.217Z,7.70
2018-05-02T00:21:06.103Z,7.70
2018-05-02T00:23:34.976Z,7.70
2018-05-02T00:26:03.960Z,7.70
2018-05-02T00:28:32.941Z,7.70
2018-05-02T00:31:02.620Z,7.60
2018-05-02T00:33:32.307Z,7.60
2018-05-02T00:36:01.166Z,7.60
2018-05-02T00:38:30.029Z,7.60
2018-05-02T00:40:59.716Z,7.60
2018-05-02T00:43:28.605Z,7.60
2018-05-02T00:45:57.470Z,7.60
2018-05-02T00:48:26.420Z,7.60
2018-05-02T00:50:55.959Z,7.60
2018-05-02T00:53:24.719Z,7.50
2018-05-02T00:55:53.587Z,7.50
2018-05-02T00:58:22.426Z,7.50
2018-05-02T01:00:52.005Z,7.60
2018-05-02T01:03:20.845Z,7.50
2018-05-02T01:05:49.856Z,7.60
2018-05-02T01:08:18.723Z,7.60
2018-05-02T01:10:48.318Z,7.50
2018-05-02T01:13:17.909Z,7.60
2018-05-02T01:15:46.750Z,7.50
2018-05-02T01:18:15.966Z,7.50
2018-05-02T01:20:44.736Z,7.60
2018-05-02T01:23:13.836Z,7.60
2018-05-02T01:25:43.424Z,7.60
2018-05-02T01:28:12.206Z,7.50
2018-05-02T01:30:40.973Z,7.50
2018-05-02T01:33:09.869Z,7.60
2018-05-02T01:35:38.932Z,7.60
2018-05-02T01:38:07.739Z,7.60
2018-05-02T01:40:36.626Z,7.60
2018-05-02T01:43:05.431Z,7.60
2018-05-02T01:45:34.762Z,7.60
2018-05-02T01:48:03.963Z,7.60
2018-05-02T01:50:32.770Z,7.60
2018-05-02T01:53:01.597Z,7.60
2018-05-02T01:55:31.222Z,7.60
2018-05-02T01:58:00.138Z,7.60
2018-05-02T02:00:28.945Z,7.60
2018-05-02T02:02:58.830Z,7.60
2018-05-02T02:05:28.105Z,7.60
2018-05-02T02:07:57.684Z,7.60
2018-05-02T02:10:26.582Z,7.60
2018-05-02T02:12:56.158Z,7.50
2018-05-02T02:15:24.969Z,7.50
2018-05-02T02:17:53.805Z,7.50
2018-05-02T02:20:22.952Z,7.60
2018-05-02T02:22:51.772Z,7.60
2018-05-02T02:25:20.862Z,7.60
2018-05-02T02:27:50.819Z,7.60
2018-05-02T02:30:20.455Z,7.60
2018-05-02T02:32:49.259Z,7.60
2018-05-02T02:35:18.108Z,7.60
2018-05-02T02:37:46.946Z,7.60
2018-05-02T02:40:15.758Z,7.60
2018-05-02T02:42:44.571Z,7.60
2018-05-02T02:45:13.455Z,7.60
2018-05-02T02:47:42.742Z,7.60
2018-05-02T02:50:11.557Z,7.70
2018-05-02T02:52:41.432Z,7.70
2018-05-02T02:55:10.320Z,7.70
2018-05-02T02:57:39.617Z,7.70
2018-05-02T03:00:09.235Z,7.70
2018-05-02T03:02:38.052Z,7.70
2018-05-02T03:05:06.898Z,7.70
2018-05-02T03:07:35.754Z,7.70
2018-05-02T03:10:04.563Z,7.70
2018-05-02T03:12:33.814Z,7.70
2018-05-02T03:15:03.443Z,7.60
2018-05-02T03:17:32.275Z,7.60
2018-05-02T03:20:02.292Z,7.60
2018-05-02T03:22:31.132Z,7.60
2018-05-02T03:25:00.754Z,7.60
2018-05-02T03:27:29.554Z,7.60
2018-05-02T03:29:58.435Z,7.60
2018-05-02T03:32:27.999Z,7.50
2018-05-02T03:34:57.593Z,7.50
2018-05-02T03:37:26.422Z,7.50
2018-05-02T03:39:55.715Z,7.40
2018-05-02T03:42:24.523Z,7.50
2018-05-02T03:44:53.354Z,7.40
2018-05-02T03:47:22.149Z,7.40
2018-05-02T03:49:50.990Z,7.40
2018-05-02T03:52:19.850Z,7.40
2018-05-02T03:54:48.614Z,7.40
2018-05-02T03:57:17.673Z,7.40
2018-05-02T03:59:58.224Z,7.40
2018-05-02T04:02:39.059Z,7.40
2018-05-02T04:05:19.589Z,7.40
2018-05-02T04:07:48.790Z,7.40
2018-05-02T04:10:18.335Z,7.40
2018-05-02T04:12:47.287Z,7.40
2018-05-02T04:15:16.079Z,7.50
2018-05-02T04:17:46.041Z,7.50
2018-05-02T04:20:14.873Z,7.50
2018-05-02T04:22:43.901Z,7.50
2018-05-02T04:25:13.434Z,7.50
2018-05-02T04:27:42.337Z,7.50
2018-05-02T04:30:11.105Z,7.50
2018-05-02T04:32:40.990Z,7.50
2018-05-02T04:35:09.882Z,7.50
2018-05-02T04:37:38.650Z,7.60
2018-05-02T04:40:07.418Z,7.50
2018-05-02T04:42:36.268Z,7.50
2018-05-02T04:45:05.102Z,7.60
2018-05-02T04:47:33.860Z,7.60
2018-05-02T04:50:02.709Z,7.60
2018-05-02T04:52:31.470Z,7.60
2018-05-02T04:55:00.618Z,7.70
2018-05-02T04:57:29.576Z,7.70
2018-05-02T04:59:58.411Z,7.70
2018-05-02T05:02:27.226Z,7.70
2018-05-02T05:04:56.078Z,7.80
2018-05-02T05:07:24.890Z,7.80
2018-05-02T05:09:53.703Z,7.80
2018-05-02T05:12:22.724Z,7.80
2018-05-02T05:14:51.887Z,7.80
2018-05-02T05:17:20.715Z,7.80
2018-05-02T05:19:50.368Z,7.80
2018-05-02T05:22:19.191Z,7.80
2018-05-02T05:24:49.002Z,7.80
2018-05-02T05:27:17.849Z,7.80
2018-05-02T05:29:46.671Z,7.80
2018-05-02T05:32:15.622Z,7.90
2018-05-02T05:34:45.334Z,7.90
2018-05-02T05:37:14.426Z,7.90
2018-05-02T05:39:43.261Z,7.90
2018-05-02T05:42:12.174Z,8.00
2018-05-02T05:44:40.983Z,8.00
2018-05-02T05:47:09.823Z,8.00
2018-05-02T05:49:39.416Z,8.10
2018-05-02T05:52:08.345Z,8.00
2018-05-02T05:54:37.159Z,8.00
2018-05-02T05:57:05.999Z,8.10
2018-05-02T05:59:34.803Z,8.10
2018-05-02T06:02:04.421Z,8.10
2018-05-02T06:04:34.084Z,8.10
2018-05-02T06:07:02.898Z,8.10
2018-05-02T06:09:31.748Z,8.20
2018-05-02T06:12:00.590Z,8.20
2018-05-02T06:14:29.406Z,8.20
2018-05-02T06:16:58.981Z,8.30
2018-05-02T06:19:27.901Z,8.30
2018-05-02T06:21:57.562Z,8.30
2018-05-02T06:24:26.361Z,8.30
2018-05-02T06:26:55.225Z,8.30
2018-05-02T06:29:24.134Z,8.40
2018-05-02T06:31:52.965Z,8.40
2018-05-02T06:34:21.775Z,8.50
2018-05-02T06:36:50.606Z,8.50
2018-05-02T06:39:19.433Z,8.50
2018-05-02T06:41:48.242Z,8.50
2018-05-02T06:44:17.090Z,8.60
2018-05-02T06:46:45.919Z,8.60
2018-05-02T06:49:16.922Z,8.60
2018-05-02T06:51:45.755Z,8.60
2018-05-02T06:54:15.091Z,8.70
2018-05-02T06:56:43.990Z,8.70
2018-05-02T06:59:13.568Z,8.80
2018-05-02T07:01:42.489Z,8.80
2018-05-02T07:04:11.670Z,8.90
2018-05-02T07:06:40.503Z,8.90
2018-05-02T07:09:10.071Z,8.90
2018-05-02T07:11:39.333Z,8.90
2018-05-02T07:14:09.138Z,9.00
2018-05-02T07:16:37.946Z,9.00
2018-05-02T07:19:06.778Z,9.00
2018-05-02T07:21:35.582Z,9.00
2018-05-02T07:24:04.432Z,9.00
2018-05-02T07:26:33.281Z,9.00
2018-05-02T07:29:02.345Z,9.00
2018-05-02T07:31:31.165Z,9.00
2018-05-02T07:34:00.046Z,9.10
2018-05-02T07:36:29.206Z,9.10
2018-05-02T07:38:58.007Z,9.10
2018-05-02T07:41:26.842Z,9.10
2018-05-02T07:43:55.649Z,9.20
2018-05-02T07:46:24.460Z,9.20
2018-05-02T07:48:54.056Z,9.20
2018-05-02T07:51:22.859Z,9.20
2018-05-02T07:53:52.427Z,9.20
2018-05-02T07:56:22.077Z,9.20
2018-05-02T07:58:52.097Z,9.30
2018-05-02T08:01:21.708Z,9.30
2018-05-02T08:03:51.354Z,9.40
2018-05-02T08:06:20.170Z,9.40
2018-05-02T08:08:48.999Z,9.40
2018-05-02T08:11:18.134Z,9.60
2018-05-02T08:13:46.934Z,9.70
2018-05-02T08:16:15.798Z,9.70
2018-05-02T08:18:45.484Z,9.80
2018-05-02T08:21:14.315Z,9.80
2018-05-02T08:23:43.174Z,9.90
2018-05-02T08:26:12.370Z,9.90
2018-05-02T08:28:41.177Z,9.90
2018-05-02T08:31:09.998Z,10.00
2018-05-02T08:33:39.606Z,10.10
2018-05-02T08:36:08.786Z,10.10
2018-05-02T08:38:37.597Z,10.20
2018-05-02T08:41:07.245Z,10.30
2018-05-02T08:43:36.067Z,10.30
2018-05-02T08:46:04.902Z,10.30
2018-05-02T08:48:34.102Z,10.40
2018-05-02T08:51:03.730Z,10.50
2018-05-02T08:53:32.536Z,10.40
2018-05-02T08:56:01.374Z,10.40
2018-05-02T08:58:30.606Z,10.50
2018-05-02T09:01:00.214Z,10.50
2018-05-02T09:03:29.884Z,10.60
2018-05-02T09:05:59.142Z,10.50
2018-05-02T09:08:28.329Z,10.60
2018-05-02T09:10:57.961Z,10.80
2018-05-02T09:13:26.770Z,10.70
2018-05-02T09:15:55.616Z,10.80
2018-05-02T09:18:24.475Z,10.90
2018-05-02T09:20:53.370Z,10.90
2018-05-02T09:23:22.273Z,10.90
2018-05-02T09:25:51.625Z,10.90
2018-05-02T09:28:20.581Z,10.90
2018-05-02T09:30:49.863Z,10.90
2018-05-02T09:33:19.231Z,11.00
2018-05-02T09:35:49.656Z,11.10
2018-05-02T09:38:18.627Z,11.10
2018-05-02T09:40:47.523Z,11.10
2018-05-02T09:43:17.728Z,11.30
2018-05-02T09:45:46.648Z,11.20
2018-05-02T09:48:16.355Z,11.40
2018-05-02T09:50:45.359Z,11.40
2018-05-02T09:53:14.553Z,11.50
2018-05-02T09:55:44.242Z,11.60
2018-05-02T09:58:13.679Z,11.70
2018-05-02T10:00:42.648Z,11.80
2018-05-02T10:03:12.414Z,11.80
2018-05-02T10:05:41.337Z,11.90
2018-05-02T10:08:10.332Z,12.00
2018-05-02T10:10:39.265Z,12.00
2018-05-02T10:13:09.016Z,11.90
2018-05-02T10:15:38.101Z,11.90
2018-05-02T10:18:07.129Z,12.00
2018-05-02T10:20:36.210Z,12.00
2018-05-02T10:23:06.123Z,11.90
2018-05-02T10:25:35.709Z,11.80
2018-05-02T10:28:04.518Z,11.80
2018-05-02T10:30:33.376Z,11.80
2018-05-02T10:33:03.355Z,11.80
2018-05-02T10:35:32.570Z,11.80
2018-05-02T10:38:01.755Z,11.80
2018-05-02T10:40:30.736Z,11.80
2018-05-02T10:42:59.569Z,11.80
2018-05-02T10:45:28.433Z,11.90
2018-05-02T10:47:58.006Z,11.90
2018-05-02T10:50:26.838Z,11.80
2018-05-02T10:52:55.722Z,11.80
2018-05-02T10:55:24.978Z,11.80
2018-05-02T10:57:53.795Z,11.70
2018-05-02T11:00:23.411Z,11.60
2018-05-02T11:02:52.216Z,11.60
2018-05-02T11:05:21.290Z,11.50
2018-05-02T11:07:50.157Z,11.50
2018-05-02T11:10:19.060Z,11.50
2018-05-02T11:12:47.962Z,11.40
2018-05-02T11:15:17.871Z,11.50
2018-05-02T11:17:46.789Z,11.50
2018-05-02T11:20:16.916Z,11.60
2018-05-02T11:22:45.903Z,11.60
2018-05-02T11:25:15.995Z,11.70
2018-05-02T11:27:45.128Z,11.70
2018-05-02T11:30:14.048Z,11.80
2018-05-02T11:32:43.347Z,11.90
2018-05-02T11:35:13.120Z,12.10
2018-05-02T11:37:42.482Z,12.00
2018-05-02T11:40:11.401Z,12.20
2018-05-02T11:42:40.643Z,12.30
2018-05-02T11:45:10.348Z,12.40
2018-05-02T11:47:40.338Z,12.40
2018-05-02T11:50:09.285Z,12.40
2018-05-02T11:52:38.148Z,12.40
2018-05-02T11:55:06.998Z,12.50
2018-05-02T11:57:35.811Z,12.40
2018-05-02T12:00:05.089Z,12.30
2018-05-02T12:02:34.029Z,12.30
2018-05-02T12:05:03.366Z,12.20
2018-05-02T12:07:32.574Z,12.30
2018-05-02T12:10:01.403Z,12.20
2018-05-02T12:12:30.504Z,12.20
2018-05-02T12:15:00.111Z,12.20
2018-05-02T12:17:28.926Z,12.20
2018-05-02T12:19:57.762Z,12.20
2018-05-02T12:22:26.834Z,12.20
2018-05-02T12:24:55.655Z,12.20
2018-05-02T12:27:24.527Z,12.20
2018-05-02T12:29:53.391Z,12.30
2018-05-02T12:32:22.962Z,12.60
2018-05-02T12:34:51.825Z,12.50
2018-05-02T12:37:20.738Z,12.70
2018-05-02T12:39:49.590Z,12.80
2018-05-02T12:42:19.194Z,13.20
2018-05-02T12:44:48.771Z,13.40
2018-05-02T12:47:17.617Z,13.40
2018-05-02T12:49:46.866Z,13.70
2018-05-02T12:52:15.709Z,13.80
2018-05-02T12:54:45.294Z,13.80
2018-05-02T12:57:14.941Z,13.80
2018-05-02T12:59:43.775Z,13.80
2018-05-02T13:02:13.377Z,13.80
2018-05-02T13:04:43.225Z,13.90
2018-05-02T13:07:12.669Z,13.90
2018-05-02T13:09:41.552Z,14.10
2018-05-02T13:12:10.399Z,14.40
2018-05-02T13:14:39.208Z,14.70
2018-05-02T13:17:08.051Z,15.00
2018-05-02T13:19:36.901Z,15.30
2018-05-02T13:22:05.737Z,15.60
2018-05-02T13:24:34.649Z,15.90
2018-05-02T13:27:03.470Z,16.50
2018-05-02T13:29:32.318Z,16.50
2018-05-02T13:32:01.183Z,16.40
2018-05-02T13:34:30.381Z,16.20
2018-05-02T13:36:59.226Z,16.20
2018-05-02T13:39:28.095Z,16.20
2018-05-02T13:41:56.919Z,16.20
2018-05-02T13:44:25.736Z,16.10
2018-05-02T13:46:54.960Z,16.30
2018-05-02T13:49:24.538Z,16.70
2018-05-02T13:51:53.637Z,16.70
2018-05-02T13:54:22.511Z,16.80
2018-05-02T13:56:51.399Z,17.00
2018-05-02T13:59:20.211Z,17.40
2018-05-02T14:01:49.083Z,17.60
2018-05-02T14:04:18.893Z,17.70
2018-05-02T14:06:48.077Z,17.50
2018-05-02T14:09:17.709Z,17.10
2018-05-02T14:11:46.554Z,17.10
2018-05-02T14:14:15.757Z,16.90
2018-05-02T14:16:44.653Z,16.90
2018-05-02T14:19:13.794Z,17.10
2018-05-02T14:21:42.650Z,17.20
2018-05-02T14:24:11.627Z,17.40
2018-05-02T14:26:40.513Z,17.40
2018-05-02T14:29:09.366Z,17.40
2018-05-02T14:31:38.941Z,17.40
2018-05-02T14:34:08.226Z,17.30
2018-05-02T14:36:37.085Z,17.50
2018-05-02T14:39:07.186Z,17.50
2018-05-02T14:41:36.110Z,17.60
2018-05-02T14:44:05.013Z,17.70
2018-05-02T14:46:33.840Z,17.80
2018-05-02T14:49:02.721Z,17.80
2018-05-02T14:51:31.594Z,17.70
2018-05-02T14:54:00.419Z,17.40
2018-05-02T14:56:29.240Z,17.30
2018-05-02T14:58:58.571Z,17.20
2018-05-02T15:01:28.649Z,17.30
2018-05-02T15:03:58.226Z,17.40
2018-05-02T15:06:27.065Z,17.40
2018-05-02T15:08:55.873Z,17.60
2018-05-02T15:11:25.111Z,17.70
2018-05-02T15:13:53.946Z,17.60
2018-05-02T15:16:22.861Z,17.60
2018-05-02T15:18:52.583Z,17.60
2018-05-02T15:21:22.236Z,17.70
2018-05-02T15:23:51.052Z,17.70
2018-05-02T15:26:19.926Z,17.90
2018-05-02T15:28:48.781Z,18.10
2018-05-02T15:31:17.653Z,18.00
2018-05-02T15:33:47.642Z,17.70
2018-05-02T15:36:17.627Z,17.80
2018-05-02T15:38:46.454Z,17.80
2018-05-02T15:41:15.340Z,17.60
2018-05-02T15:43:44.235Z,17.70
2018-05-02T15:46:13.182Z,17.80
2018-05-02T15:48:42.427Z,17.80
2018-05-02T15:51:11.266Z,17.90
2018-05-02T15:53:40.210Z,17.90
2018-05-02T15:56:09.127Z,18.00
2018-05-02T15:58:38.000Z,17.90
2018-05-02T16:01:06.867Z,17.90
2018-05-02T16:03:36.046Z,18.10
2018-05-02T16:06:05.008Z,18.20
2018-05-02T16:08:33.830Z,18.50
2018-05-02T16:11:02.726Z,18.60
2018-05-02T16:13:31.619Z,18.60
2018-05-02T16:16:00.504Z,18.50
2018-05-02T16:18:29.414Z,18.60
2018-05-02T16:20:58.357Z,18.50
2018-05-02T16:23:27.257Z,18.60
2018-05-02T16:25:56.134Z,18.60
2018-05-02T16:28:24.978Z,18.60
2018-05-02T16:30:53.837Z,18.50
2018-05-02T16:33:23.186Z,18.60
2018-05-02T16:35:51.986Z,18.50
2018-05-02T16:38:20.962Z,18.60
2018-05-02T16:40:49.829Z,18.50
2018-05-02T16:43:18.778Z,18.60
2018-05-02T16:45:47.666Z,18.60
2018-05-02T16:48:16.838Z,18.70
2018-05-02T16:50:45.702Z,18.80
2018-05-02T16:53:14.843Z,18.90
2018-05-02T16:55:43.805Z,19.10
2018-05-02T16:58:13.346Z,19.20
2018-05-02T17:00:42.179Z,19.30
2018-05-02T17:03:12.246Z,19.50
2018-05-02T17:05:41.083Z,19.50
2018-05-02T17:08:09.927Z,19.60
2018-05-02T17:10:38.932Z,19.40
2018-05-02T17:13:07.830Z,20.10
2018-05-02T17:15:36.660Z,20.60
2018-05-02T17:18:05.515Z,20.90
2018-05-02T17:20:34.363Z,20.80
2018-05-02T17:23:03.266Z,20.60
2018-05-02T17:25:32.879Z,19.70
2018-05-02T17:28:02.506Z,19.10
2018-05-02T17:30:31.618Z,19.10
2018-05-02T17:33:00.493Z,18.60
2018-05-02T17:35:29.422Z,18.20
2018-05-02T17:37:58.358Z,18.00
2018-05-02T17:40:27.190Z,17.80
2018-05-02T17:42:56.066Z,17.70
2018-05-02T17:45:25.723Z,17.70
2018-05-02T17:47:54.571Z,17.70
2018-05-02T17:50:23.707Z,17.70
2018-05-02T17:52:52.560Z,17.60
2018-05-02T17:55:21.580Z,17.50
2018-05-02T17:57:50.627Z,17.40
2018-05-02T18:00:20.686Z,17.10
2018-05-02T18:02:50.295Z,16.90
2018-05-02T18:05:19.457Z,16.90
2018-05-02T18:07:48.273Z,16.80
2018-05-02T18:10:17.118Z,16.60
2018-05-02T18:12:45.963Z,16.50
2018-05-02T18:15:14.791Z,16.40
2018-05-02T18:17:43.678Z,16.20
2018-05-02T18:20:13.371Z,16.00
2018-05-02T18:22:42.456Z,16.00
2018-05-02T18:25:12.216Z,15.70
2018-05-02T18:27:42.304Z,15.70
2018-05-02T18:30:11.163Z,15.60
2018-05-02T18:32:40.126Z,15.50
2018-05-02T18:35:08.982Z,15.30
2018-05-02T18:37:37.892Z,15.20
2018-05-02T18:40:07.216Z,15.10
2018-05-02T18:42:36.802Z,14.70
2018-05-02T18:45:05.717Z,14.70
2018-05-02T18:47:34.624Z,14.50
2018-05-02T18:50:03.615Z,14.40
2018-05-02T18:52:32.558Z,14.20
2018-05-02T18:55:01.557Z,14.10
2018-05-02T18:57:30.534Z,13.90
2018-05-02T18:59:59.403Z,13.80
2018-05-02T19:02:29.144Z,13.50
2018-05-02T19:04:58.176Z,13.50
2018-05-02T19:07:27.142Z,13.40
2018-05-02T19:09:56.164Z,13.30
2018-05-02T19:12:26.192Z,13.10
2018-05-02T19:14:55.095Z,13.10
2018-05-02T19:17:24.081Z,13.00
2018-05-02T19:19:58.535Z,12.80
2018-05-02T19:22:28.590Z,12.40
2018-05-02T19:25:03.060Z,12.40
2018-05-02T19:27:31.904Z,12.30
2018-05-02T19:30:00.992Z,12.10
2018-05-02T19:32:35.330Z,11.90
2018-05-02T19:35:04.207Z,11.80
2018-05-02T19:37:33.054Z,11.70
2018-05-02T19:40:07.447Z,11.70
2018-05-02T19:42:42.753Z,11.50
2018-05-02T19:45:11.629Z,11.50
2018-05-02T19:47:41.399Z,11.20
2018-05-02T19:50:10.531Z,11.20
2018-05-02T19:52:45.278Z,11.10
2018-05-02T19:55:14.954Z,11.00
2018-05-02T19:57:43.846Z,11.00
2018-05-02T20:00:18.514Z,10.90
2018-05-02T20:05:42.320Z,10.70
2018-05-02T20:08:16.747Z,10.60
2018-05-02T20:10:51.250Z,10.50
2018-05-02T20:13:26.046Z,10.40
2018-05-02T20:15:55.360Z,10.30
2018-05-02T20:18:24.250Z,10.20
2018-05-02T20:20:53.069Z,10.20
2018-05-02T20:23:21.986Z,10.10
2018-05-02T20:25:50.815Z,10.00
2018-05-02T20:28:19.993Z,9.90
2018-05-02T20:30:48.940Z,9.90
2018-05-02T20:33:18.012Z,9.80
2018-05-02T20:35:46.835Z,9.70
2018-05-02T20:38:16.464Z,9.70
2018-05-02T20:40:45.279Z,9.70
2018-05-02T20:43:14.086Z,9.70
2018-05-02T20:45:42.919Z,9.60
2018-05-02T20:48:11.741Z,9.50
2018-05-02T20:50:40.676Z,9.50
2018-05-02T20:53:09.506Z,9.40
2018-05-02T20:55:41.477Z,9.40
2018-05-02T20:58:10.723Z,9.30
2018-05-02T21:00:39.538Z,9.30
2018-05-02T21:03:08.351Z,9.20
2018-05-02T21:05:37.239Z,9.20
2018-05-02T21:08:06.069Z,9.10
2018-05-02T21:10:35.258Z,9.10
2018-05-02T21:13:04.854Z,9.00
2018-05-02T21:15:33.686Z,8.90
2018-05-02T21:18:02.511Z,8.90
2018-05-02T21:20:31.374Z,8.90
2018-05-02T21:23:00.174Z,8.80
2018-05-02T21:25:28.983Z,8.70
2018-05-02T21:27:57.854Z,8.60
2018-05-02T21:30:26.939Z,8.60
2018-05-02T21:32:56.518Z,8.40
2018-05-02T21:35:25.732Z,8.40
2018-05-02T21:37:54.552Z,8.30
2018-05-02T21:40:24.127Z,8.20
2018-05-02T21:42:53.006Z,8.20
2018-05-02T21:45:22.298Z,8.10
2018-05-02T21:47:51.140Z,8.00
2018-05-02T21:50:20.057Z,8.00
2018-05-02T21:52:49.124Z,8.00
2018-05-02T21:55:17.933Z,7.90
2018-05-02T21:57:47.534Z,7.80
2018-05-02T22:00:16.810Z,7.80
2018-05-02T22:02:46.665Z,7.80
2018-05-02T22:05:15.566Z,7.80
2018-05-02T22:07:45.672Z,7.60
2018-05-02T22:10:14.887Z,7.60
2018-05-02T22:12:44.489Z,7.50
2018-05-02T22:15:14.097Z,7.50
2018-05-02T22:17:42.902Z,7.50
2018-05-02T22:20:12.490Z,7.50
2018-05-02T22:22:41.829Z,7.40
2018-05-02T22:25:10.643Z,7.40
2018-05-02T22:27:39.526Z,7.40
2018-05-02T22:30:08.332Z,7.40
2018-05-02T22:32:37.134Z,7.40
2018-05-02T22:35:05.979Z,7.30
2018-05-02T22:37:35.558Z,7.20
2018-05-02T22:40:04.778Z,7.20
2018-05-02T22:42:33.661Z,7.10
2018-05-02T22:45:02.476Z,7.10
2018-05-02T22:47:31.297Z,7.10
2018-05-02T22:50:00.166Z,7.10
2018-05-02T22:52:29.761Z,7.00
2018-05-02T22:54:58.590Z,7.00
2018-05-02T22:57:27.844Z,7.00
2018-05-02T22:59:56.649Z,6.90
2018-05-02T23:02:26.558Z,6.80
2018-05-02T23:04:56.505Z,6.80
2018-05-02T23:07:25.742Z,6.80
2018-05-02T23:09:54.589Z,6.80
2018-05-02T23:12:23.726Z,6.70
2018-05-02T23:14:53.307Z,6.60
2018-05-02T23:17:22.109Z,6.60
2018-05-02T23:19:51.698Z,6.50
2018-05-02T23:22:20.517Z,6.50
2018-05-02T23:24:50.116Z,6.30
2018-05-02T23:27:19.198Z,6.30
2018-05-02T23:29:48.014Z,6.20
2018-05-02T23:32:17.579Z,6.10
2018-05-02T23:34:46.461Z,6.10
2018-05-02T23:37:15.261Z,6.00
2018-05-02T23:39:44.088Z,6.00
2018-05-02T23:42:12.926Z,5.90
2018-05-02T23:44:41.735Z,5.90
2018-05-02T23:47:10.884Z,5.90
2018-05-02T23:49:39.721Z,5.80
2018-05-02T23:52:08.538Z,5.90
2018-05-02T23:54:37.737Z,5.80
2018-05-02T23:57:07.226Z,5.80
2018-05-02T23:59:36.039Z,5.80
